Mont Saint Michel — FNMT — position and weather

sailwx.info

Track history (hours):
 
Tides and Currents Weather Stations Pressure Air Temp Water Temp Dewpoint Dewpoint Depression Visibility Wind Speed Wind Dir Waves Ship Positions

Mont Saint Michel

Last reported at 2017-May-22 15:29 UTC. Time now 2017-May-22 15:29 UTC.
Position N 50°20' W 000°47'.

Length 173 m; beam 29 m.

Type: Ship. MMSI: 227023100.

Date/timePositionNaut miles runAvg speedWind from/ knotsBaromVisibWave heightAir tempDewpointWater temp
2017-May-22 15:29N 50°20' W 000°47'919.2
2017-May-22 15:01N 50°28' W 000°52'1817.7
2017-May-22 14:01N 50°44' W 001°04'5 9.4
2017-May-22 13:31N 50°49' W 001°06'0 0.0
2017-May-22 13:00N 50°49' W 001°06'0 0.0
2017-May-22 12:31N 50°49' W 001°06'0 0.1
2017-May-22 12:01N 50°49' W 001°06'3 6.1
2017-May-22 11:30N 50°46' W 001°05'816.3
2017-May-22 11:01N 50°39' W 000°59'1019.7
2017-May-22 10:30N 50°30' W 000°52'1019.8
2017-May-22 10:00N 50°21' W 000°45'1020.1
2017-May-22 09:30N 50°12' W 000°38'1020.0
2017-May-22 09:00N 50°03' W 000°31'1019.6
2017-May-22 08:30N 49°54' W 000°25'1019.5
2017-May-22 08:00N 49°45' W 000°20'1019.3
2017-May-22 07:30N 49°35' W 000°17'1019.4
2017-May-22 07:00N 49°26' W 000°16'816.8
2017-May-22 06:31N 49°17' W 000°15'0 0.1
2017-May-22 06:00N 49°17' W 000°15'0 0.0
2017-May-22 05:30N 49°17' W 000°15'0 0.0
2017-May-22 05:00N 49°17' W 000°15'0 0.2
2017-May-22 04:31N 49°17' W 000°15'612.8
2017-May-22 04:00N 49°24' W 000°16'815.3
2017-May-22 03:30N 49°31' W 000°21'715.0
2017-May-22 03:00N 49°38' W 000°25'815.0
2017-May-22 02:30N 49°44' W 000°30'714.9
2017-May-22 02:00N 49°51' W 000°35'714.5
2017-May-22 01:30N 49°58' W 000°40'714.3
2017-May-22 01:00N 50°04' W 000°44'714.3
2017-May-22 00:30N 50°11' W 000°47'714.3
2017-May-22 00:00N 50°18' W 000°50'714.6
2017-May-21 23:30N 50°25' W 000°53'714.3
2017-May-21 23:00N 50°32' W 000°56'714.5
2017-May-21 22:30N 50°39' W 000°59'714.4
2017-May-21 22:00N 50°45' W 001°05'4 7.3
2017-May-21 21:30N 50°49' W 001°06'0 0.0
2017-May-21 21:00N 50°49' W 001°06'0 0.0
2017-May-21 20:30N 50°49' W 001°06'0 0.2
2017-May-21 20:01N 50°49' W 001°06'510.5
2017-May-21 19:31N 50°44' W 001°03'1019.9
2017-May-21 19:00N 50°35' W 000°55'1020.8
2017-May-21 18:30N 50°26' W 000°47'1020.8
2017-May-21 18:01N 50°16' W 000°42'1020.6
2017-May-21 17:30N 50°06' W 000°37'1020.4
2017-May-21 17:00N 49°57' W 000°33'1020.4
2017-May-21 16:30N 49°47' W 000°29'1020.2
2017-May-21 16:00N 49°37' W 000°23'1020.2
2017-May-21 15:30N 49°28' W 000°19'918.8
2017-May-21 15:00N 49°19' W 000°15'1 1.3
2017-May-21 14:00N 49°17' W 000°15'0 0.0
2017-May-21 13:30N 49°17' W 000°15'0 0.0
2017-May-21 13:00N 49°17' W 000°15'2 4.3
2017-May-21 12:30N 49°19' W 000°15'815.8
2017-May-21 12:01N 49°27' W 000°18'816.0
2017-May-21 11:31N 49°34' W 000°24'815.8
2017-May-21 11:00N 49°42' W 000°27'918.5
2017-May-21 10:30N 49°51' W 000°29'918.5
2017-May-21 10:00N 49°60' W 000°32'918.5
2017-May-21 09:30N 50°09' W 000°36'918.6
2017-May-21 09:00N 50°18' W 000°41'1020.3
2017-May-21 08:31N 50°27' W 000°48'1020.2
2017-May-21 08:00N 50°35' W 000°56'918.8
2017-May-21 07:31N 50°44' W 001°03'510.7
2017-May-21 07:00N 50°49' W 001°06'0 0.0
2017-May-21 06:30N 50°49' W 001°06'0 0.0
2017-May-21 06:00N 50°49' W 001°06'0 0.0
2017-May-21 05:30N 50°49' W 001°06'3 6.7
2017-May-21 05:00N 50°45' W 001°05'815.4
2017-May-21 04:30N 50°39' W 000°58'714.1
2017-May-21 04:00N 50°33' W 000°53'510.4
2017-May-21 03:30N 50°28' W 000°49'610.7
2017-May-21 02:55N 50°23' W 000°44'511.3
2017-May-21 02:30N 50°18' W 000°44'611.1
2017-May-21 02:00N 50°13' W 000°42'611.1
2017-May-21 01:30N 50°07' W 000°41'611.7
2017-May-21 01:00N 50°01' W 000°39'611.9
2017-May-21 00:30N 49°56' W 000°36'611.9
2017-May-21 00:00N 49°50' W 000°33'612.0
2017-May-20 23:30N 49°44' W 000°30'612.0
2017-May-20 23:00N 49°39' W 000°27'612.0
2017-May-20 22:30N 49°33' W 000°24'612.2
2017-May-20 22:00N 49°28' W 000°19'612.0
2017-May-20 21:30N 49°23' W 000°15'510.5
2017-May-20 21:01N 49°17' W 000°15'0 0.1
2017-May-20 20:30N 49°17' W 000°15'0 0.0
2017-May-20 20:00N 49°17' W 000°15'0 0.0
2017-May-20 19:30N 49°17' W 000°15'3 6.8
2017-May-20 19:00N 49°21' W 000°14'1020.7
2017-May-20 18:30N 49°30' W 000°22'918.5
2017-May-20 18:00N 49°38' W 000°28'815.8
2017-May-20 17:30N 49°46' W 000°30'816.5
2017-May-20 17:00N 49°54' W 000°35'917.7
2017-May-20 16:30N 50°02' W 000°39'918.6
2017-May-20 16:00N 50°11' W 000°44'918.0
2017-May-20 15:29N 50°20' W 000°47'918.0
2017-May-20 14:59N 50°28' W 000°52'1717.5
2017-May-20 14:01N 50°44' W 001°04'5 9.8
2017-May-20 13:31N 50°49' W 001°06'0 0.0
2017-May-20 13:00N 50°49' W 001°06'0 0.0
2017-May-20 12:31N 50°49' W 001°06'0 0.2
2017-May-20 12:00N 50°49' W 001°06'4 8.6
2017-May-20 11:30N 50°44' W 001°05'815.5
2017-May-20 11:00N 50°39' W 000°56'816.9
2017-May-20 10:31N 50°31' W 000°51'917.9
2017-May-20 10:00N 50°23' W 000°43'1020.1
2017-May-20 09:30N 50°14' W 000°36'1020.0
2017-May-20 09:01N 50°05' W 000°31'1020.1
2017-May-20 08:31N 49°55' W 000°27'1020.0
2017-May-20 08:01N 49°46' W 000°23'1020.7
2017-May-20 07:30N 49°36' W 000°18'1121.2
2017-May-20 07:00N 49°25' W 000°16'815.9
2017-May-20 06:31N 49°17' W 000°15'0 0.0
2017-May-20 06:01N 49°17' W 000°15'0 0.0
2017-May-20 05:31N 49°17' W 000°15'0 0.0
2017-May-20 05:00N 49°17' W 000°15'0 0.2
2017-May-20 04:31N 49°17' W 000°15'713.2
2017-May-20 04:00N 49°24' W 000°17'815.4
2017-May-20 03:31N 49°31' W 000°22'815.0
2017-May-20 03:00N 49°38' W 000°26'815.1
2017-May-20 02:30N 49°45' W 000°30'815.1
2017-May-20 02:00N 49°52' W 000°34'815.7
2017-May-20 01:30N 49°59' W 000°38'815.6
2017-May-20 00:59N 50°07' W 000°42'1415.5
2017-May-20 00:06N 50°20' W 000°48'215.3
2017-May-19 23:57N 50°22' W 000°49'715.3
2017-May-19 23:30N 50°29' W 000°52'815.2
2017-May-19 23:00N 50°36' W 000°57'714.2
2017-May-19 22:31N 50°43' W 000°60'612.4
2017-May-19 22:00N 50°47' W 001°06'2 3.1
2017-May-19 21:30N 50°49' W 001°06'0 0.0
2017-May-19 21:00N 50°49' W 001°06'0 0.0
2017-May-19 20:30N 50°49' W 001°06'0 0.5
2017-May-19 20:00N 50°49' W 001°06'612.3
2017-May-19 19:31N 50°43' W 001°02'918.2
2017-May-19 19:00N 50°36' W 000°54'1119.5
2017-May-19 18:27N 50°27' W 000°44'818.5
2017-May-19 18:00N 50°19' W 000°41'1019.0
2017-May-19 17:30N 50°10' W 000°37'918.9
2017-May-19 17:00N 50°01' W 000°33'918.8
2017-May-19 16:30N 49°52' W 000°29'918.8
2017-May-19 16:00N 49°43' W 000°24'918.7
2017-May-19 15:30N 49°34' W 000°20'918.7
2017-May-19 15:00N 49°25' W 000°16'7 7.4
2017-May-19 14:01N 49°17' W 000°15'0 0.0
2017-May-19 13:31N 49°17' W 000°15'0 0.0
2017-May-19 13:01N 49°17' W 000°15'2 4.9
2017-May-19 12:31N 49°20' W 000°14'816.3
2017-May-19 12:00N 49°28' W 000°18'816.5
2017-May-19 11:31N 49°35' W 000°24'1019.1
2017-May-19 11:01N 49°44' W 000°28'1019.0
2017-May-19 10:30N 49°53' W 000°34'918.7
2017-May-19 10:01N 50°02' W 000°39'918.7
2017-May-19 09:30N 50°10' W 000°44'1118.8
2017-May-19 08:55N 50°21' W 000°50'820.4
2017-May-19 08:30N 50°29' W 000°54'1020.9
2017-May-19 08:00N 50°38' W 000°60'918.1
2017-May-19 07:31N 50°47' W 001°06'2 4.2
2017-May-19 07:00N 50°49' W 001°06'0 0.0
2017-May-19 06:31N 50°49' W 001°06'0 0.0
2017-May-19 06:00N 50°49' W 001°06'0 0.2
2017-May-19 05:31N 50°49' W 001°06'4 7.4
2017-May-19 05:01N 50°45' W 001°05'714.9
2017-May-19 04:30N 50°39' W 000°59'714.8
2017-May-19 04:00N 50°32' W 000°54'714.8
2017-May-19 03:30N 50°25' W 000°49'1214.7
2017-May-19 02:42N 50°14' W 000°42'314.7
2017-May-19 02:30N 50°12' W 000°40'714.8
2017-May-19 02:00N 50°05' W 000°36'611.3
2017-May-19 01:30N 49°59' W 000°33'510.8
2017-May-19 01:00N 49°54' W 000°33'510.6
2017-May-19 00:31N 49°49' W 000°31'510.2
2017-May-19 00:01N 49°44' W 000°29'510.4
2017-May-18 23:31N 49°39' W 000°27'510.2
2017-May-18 23:00N 49°34' W 000°24'510.8
2017-May-18 22:30N 49°29' W 000°20'510.8
2017-May-18 22:00N 49°24' W 000°17'510.5
2017-May-18 21:31N 49°19' W 000°15'2 3.7
2017-May-18 21:00N 49°17' W 000°15'0 0.0
2017-May-18 20:31N 49°17' W 000°15'0 0.0
2017-May-18 20:00N 49°17' W 000°15'0 0.0
2017-May-18 19:31N 49°17' W 000°15'3 5.1
2017-May-18 19:01N 49°20' W 000°14'918.3
2017-May-18 18:31N 49°29' W 000°18'918.8
2017-May-18 18:01N 49°37' W 000°24'1019.3
2017-May-18 17:31N 49°46' W 000°29'1020.6
2017-May-18 17:01N 49°56' W 000°33'1020.4
2017-May-18 16:30N 50°06' W 000°39'1420.4
2017-May-18 15:50N 50°19' W 000°46'720.7
2017-May-18 15:31N 50°25' W 000°50'1019.5
2017-May-18 15:01N 50°34' W 000°56'1615.9
2017-May-18 14:00N 50°48' W 001°07'1 1.5
2017-May-18 13:31N 50°49' W 001°06'0 0.0
2017-May-18 13:01N 50°49' W 001°06'0 0.0
2017-May-18 12:31N 50°49' W 001°06'0 0.6
2017-May-18 12:01N 50°49' W 001°06'510.2
2017-May-18 11:31N 50°44' W 001°03'815.9
2017-May-18 11:01N 50°37' W 000°57'1418.7
2017-May-18 10:16N 50°23' W 000°55'518.7
2017-May-18 10:00N 50°18' W 000°53'1020.1
2017-May-18 09:30N 50°09' W 000°48'1020.8
2017-May-18 09:01N 49°60' W 000°41'1121.1
2017-May-18 08:30N 49°50' W 000°33'1020.8
2017-May-18 08:01N 49°41' W 000°26'1020.3
2017-May-18 07:31N 49°32' W 000°21'1020.5
2017-May-18 07:01N 49°22' W 000°15'5 9.0
2017-May-18 06:30N 49°17' W 000°15'0 0.0
2017-May-18 06:00N 49°17' W 000°15'0 0.0
2017-May-18 05:30N 49°17' W 000°15'0 0.0
2017-May-18 05:00N 49°17' W 000°15'0 0.2
2017-May-18 04:30N 49°17' W 000°15'714.3
2017-May-18 04:01N 49°24' W 000°16'816.5
2017-May-18 03:31N 49°32' W 000°19'612.2
2017-May-18 03:00N 49°38' W 000°22'611.7
2017-May-18 02:30N 49°44' W 000°25'611.8
2017-May-18 02:00N 49°49' W 000°28'611.9
2017-May-18 01:30N 49°55' W 000°31'714.5
2017-May-18 01:00N 50°02' W 000°35'816.9
2017-May-18 00:30N 50°10' W 000°40'1316.8
2017-May-17 23:44N 50°22' W 000°47'416.6
2017-May-17 23:31N 50°25' W 000°49'816.6
2017-May-17 23:01N 50°33' W 000°54'815.9
2017-May-17 22:31N 50°40' W 000°58'611.7
2017-May-17 22:00N 50°44' W 001°05'4 8.6
2017-May-17 21:30N 50°49' W 001°06'0 0.0
2017-May-17 21:00N 50°49' W 001°06'0 0.0
2017-May-17 20:30N 50°49' W 001°06'0 0.0
2017-May-17 20:00N 50°49' W 001°06'0 0.0
2017-May-17 19:30N 50°49' W 001°06'0 0.0
2017-May-17 19:00N 50°49' W 001°06'0 0.0
2017-May-17 18:30N 50°49' W 001°06'0 0.5
2017-May-17 18:01N 50°49' W 001°06'611.6
2017-May-17 17:31N 50°43' W 001°03'917.2
2017-May-17 17:00N 50°35' W 000°57'917.4
2017-May-17 16:30N 50°27' W 000°52'1115.6
2017-May-17 15:47N 50°17' W 000°46'415.7
2017-May-17 15:30N 50°13' W 000°44'815.8
2017-May-17 15:00N 50°05' W 000°40'1615.7
2017-May-17 14:00N 49°50' W 000°33'917.5
2017-May-17 13:31N 49°42' W 000°28'1019.1
2017-May-17 13:00N 49°33' W 000°22'1019.4
2017-May-17 12:30N 49°24' W 000°17'713.9
2017-May-17 12:00N 49°17' W 000°15'0 0.0
2017-May-17 11:30N 49°17' W 000°15'0 0.0
2017-May-17 10:59N 49°17' W 000°15'0 0.0
2017-May-17 10:29N 49°17' W 000°15'0 0.0
2017-May-17 09:59N 49°17' W 000°15'0 0.0
2017-May-17 09:29N 49°17' W 000°15'0 0.0
2017-May-17 08:59N 49°17' W 000°15'0 0.0
2017-May-17 08:29N 49°17' W 000°15'0 0.0
2017-May-17 07:59N 49°17' W 000°15'0 0.0
2017-May-17 07:29N 49°17' W 000°15'0 0.0
2017-May-17 06:59N 49°17' W 000°15'0 0.0
2017-May-17 06:29N 49°17' W 000°15'0 0.0
2017-May-17 05:59N 49°17' W 000°15'0 0.0
2017-May-17 05:30N 49°17' W 000°15'3 6.3
2017-May-17 05:00N 49°20' W 000°14'815.8
2017-May-17 04:30N 49°28' W 000°20'816.0
2017-May-17 04:00N 49°35' W 000°25'815.7
2017-May-17 03:30N 49°42' W 000°29'815.8
2017-May-17 03:00N 49°50' W 000°33'815.5
2017-May-17 02:30N 49°57' W 000°37'815.4
2017-May-17 02:00N 50°04' W 000°42'815.8
2017-May-17 01:29N 50°11' W 000°48'1212.7
2017-May-17 00:35N 50°23' W 000°50'115.4
2017-May-17 00:30N 50°24' W 000°50'611.7
2017-May-17 00:00N 50°29' W 000°53'511.1
2017-May-16 23:30N 50°35' W 000°56'510.6
2017-May-16 23:00N 50°40' W 000°58'510.2
2017-May-16 22:30N 50°44' W 001°03'510.6
2017-May-16 22:01N 50°49' W 001°07'1 1.1
2017-May-16 21:30N 50°49' W 001°06'0 0.0
2017-May-16 20:58N 50°49' W 001°06'0 0.0
2017-May-16 20:28N 50°49' W 001°06'0 0.8
2017-May-16 20:00N 50°49' W 001°06'611.6
2017-May-16 19:30N 50°44' W 001°02'917.7
2017-May-16 19:00N 50°35' W 000°57'1019.4
2017-May-16 18:30N 50°26' W 000°53'918.8
2017-May-16 18:00N 50°17' W 000°48'1019.3
2017-May-16 17:30N 50°08' W 000°43'1019.3
2017-May-16 17:00N 49°59' W 000°37'1019.5
2017-May-16 16:30N 49°50' W 000°32'1019.4
2017-May-16 16:00N 49°41' W 000°27'1019.2
2017-May-16 15:30N 49°32' W 000°21'1019.1
2017-May-16 15:00N 49°23' W 000°16'611.7
2017-May-16 14:30N 49°17' W 000°15'0 0.0
2017-May-16 13:30N 49°17' W 000°15'0 0.0
2017-May-16 13:00N 49°17' W 000°15'2 4.4
2017-May-16 12:30N 49°20' W 000°15'1019.5
2017-May-16 12:00N 49°29' W 000°19'1019.3
2017-May-16 11:30N 49°38' W 000°24'1019.4
2017-May-16 11:00N 49°47' W 000°30'1019.9
2017-May-16 10:30N 49°56' W 000°35'3419.2
2017-May-16 08:43N 50°29' W 000°53'418.3
2017-May-16 08:30N 50°33' W 000°55'917.9
2017-May-16 08:00N 50°41' W 000°58'815.8
2017-May-16 07:30N 50°47' W 001°06'2 3.5
2017-May-16 07:00N 50°49' W 001°06'0 0.0
2017-May-16 06:30N 50°49' W 001°06'0 0.0
2017-May-16 06:00N 50°49' W 001°06'0 0.2
2017-May-16 05:31N 50°49' W 001°06'5 9.2
2017-May-16 05:01N 50°44' W 001°04'918.0
2017-May-16 04:30N 50°37' W 000°57'815.3
2017-May-16 04:00N 50°30' W 000°52'612.0
2017-May-16 03:30N 50°24' W 000°48'812.0
2017-May-16 02:51N 50°17' W 000°42'412.3
2017-May-16 02:30N 50°13' W 000°39'612.1
2017-May-16 02:00N 50°08' W 000°36'611.9
2017-May-16 01:30N 50°02' W 000°32'611.5
2017-May-16 01:00N 49°57' W 000°29'611.5
2017-May-16 00:30N 49°51' W 000°27'611.8
2017-May-16 00:00N 49°46' W 000°24'611.8
2017-May-15 23:30N 49°40' W 000°22'611.6
2017-May-15 23:00N 49°34' W 000°20'611.7
2017-May-15 22:30N 49°29' W 000°17'611.4
2017-May-15 22:00N 49°23' W 000°15'510.8
2017-May-15 21:30N 49°18' W 000°15'0 0.7
2017-May-15 21:00N 49°17' W 000°15'0 0.0
2017-May-15 20:30N 49°17' W 000°15'0 0.0
2017-May-15 20:00N 49°17' W 000°15'0 0.0
2017-May-15 19:30N 49°17' W 000°15'3 5.9
2017-May-15 19:00N 49°20' W 000°14'1019.4
2017-May-15 18:30N 49°30' W 000°19'918.7
2017-May-15 18:00N 49°38' W 000°24'918.1
2017-May-15 17:30N 49°46' W 000°30'918.0
2017-May-15 17:00N 49°55' W 000°35'917.9
2017-May-15 16:30N 50°03' W 000°39'918.0
2017-May-15 15:59N 50°12' W 000°44'918.2
2017-May-15 15:30N 50°21' W 000°48'918.1
2017-May-15 15:00N 50°29' W 000°53'1817.8
2017-May-15 14:00N 50°45' W 001°05'4 7.1
2017-May-15 13:30N 50°49' W 001°06'0 0.0
2017-May-15 13:00N 50°49' W 001°06'0 0.0
2017-May-15 12:31N 50°49' W 001°06'0 0.2
2017-May-15 12:00N 50°49' W 001°06'510.6
2017-May-15 11:31N 50°44' W 001°03'1019.5
2017-May-15 11:01N 50°35' W 000°55'1020.3
2017-May-15 10:31N 50°26' W 000°49'1120.9
2017-May-15 09:58N 50°15' W 000°44'920.6
2017-May-15 09:30N 50°06' W 000°41'1020.4
2017-May-15 09:01N 49°56' W 000°36'918.7
2017-May-15 08:30N 49°48' W 000°30'918.7
2017-May-15 08:01N 49°39' W 000°24'918.9
2017-May-15 07:31N 49°30' W 000°19'918.9
2017-May-15 07:00N 49°21' W 000°15'4 7.8
2017-May-15 06:31N 49°17' W 000°15'0 0.0
2017-May-15 06:00N 49°17' W 000°15'0 0.0
2017-May-15 05:30N 49°17' W 000°15'0 0.0
2017-May-15 05:00N 49°17' W 000°15'0 0.3
2017-May-15 04:30N 49°17' W 000°15'714.5
2017-May-15 04:01N 49°24' W 000°16'918.0
2017-May-15 03:31N 49°33' W 000°19'917.2
2017-May-15 03:00N 49°41' W 000°24'815.5
2017-May-15 02:31N 49°49' W 000°26'815.7
2017-May-15 02:01N 49°56' W 000°29'815.7
2017-May-15 01:30N 50°04' W 000°33'816.0
2017-May-15 01:01N 50°11' W 000°38'816.1
2017-May-15 00:31N 50°19' W 000°43'815.9
2017-May-15 00:01N 50°26' W 000°48'816.2
2017-May-14 23:31N 50°33' W 000°54'816.1
2017-May-14 23:00N 50°41' W 000°58'714.7
2017-May-14 22:31N 50°46' W 001°06'2 4.9
2017-May-14 22:00N 50°49' W 001°06'0 0.0
2017-May-14 21:30N 50°49' W 001°06'0 0.0
2017-May-14 21:01N 50°49' W 001°06'0 0.0
2017-May-14 20:30N 50°49' W 001°06'3 6.7
2017-May-14 20:00N 50°45' W 001°05'510.5
2017-May-14 19:31N 50°43' W 000°58'815.7
2017-May-14 19:01N 50°35' W 000°54'1020.6
2017-May-14 18:31N 50°25' W 000°49'1021.0
2017-May-14 18:01N 50°16' W 000°43'917.2
2017-May-14 17:31N 50°08' W 000°38'917.4
2017-May-14 17:00N 49°59' W 000°34'917.7
2017-May-14 16:31N 49°51' W 000°28'918.4
2017-May-14 16:01N 49°43' W 000°23'1020.0
2017-May-14 15:30N 49°33' W 000°19'1019.9
2017-May-14 15:01N 49°23' W 000°16'612.0
2017-May-14 14:30N 49°17' W 000°15'0 0.0
2017-May-14 13:30N 49°17' W 000°15'0 0.0
2017-May-14 13:00N 49°17' W 000°15'0 0.0
2017-May-14 12:30N 49°17' W 000°15'713.6
2017-May-14 12:00N 49°24' W 000°14'1019.9
2017-May-14 11:30N 49°34' W 000°18'816.7
2017-May-14 11:00N 49°42' W 000°22'917.0
2017-May-14 10:30N 49°50' W 000°26'917.1
2017-May-14 10:00N 49°58' W 000°30'917.2
2017-May-14 09:30N 50°06' W 000°34'1121.7
2017-May-14 09:00N 50°16' W 000°42'1021.3
2017-May-14 08:30N 50°26' W 000°49'1121.2
2017-May-14 08:00N 50°35' W 000°56'918.4
2017-May-14 07:30N 50°43' W 001°02'611.8
2017-May-14 07:00N 50°49' W 001°06'0 0.3
2017-May-14 06:30N 50°49' W 001°06'0 0.0
2017-May-14 06:00N 50°49' W 001°06'0 0.8
2017-May-14 05:30N 50°49' W 001°06'611.7
2017-May-14 05:00N 50°44' W 001°02'816.0
2017-May-14 04:31N 50°36' W 000°57'612.2
2017-May-14 04:01N 50°31' W 000°53'612.0
2017-May-14 03:28N 50°25' W 000°49'711.0
2017-May-14 02:52N 50°19' W 000°45'411.4
2017-May-14 02:30N 50°15' W 000°43'611.7
2017-May-14 02:01N 50°09' W 000°40'611.5
2017-May-14 01:30N 50°04' W 000°36'611.3
2017-May-14 01:01N 49°59' W 000°34'611.1
2017-May-14 00:31N 49°53' W 000°30'511.0
2017-May-14 00:01N 49°48' W 000°28'510.7
2017-May-13 23:30N 49°43' W 000°25'510.7
2017-May-13 23:01N 49°38' W 000°21'510.9
2017-May-13 22:31N 49°33' W 000°21'611.3
2017-May-13 22:01N 49°28' W 000°18'611.0
2017-May-13 21:30N 49°22' W 000°15'510.0
2017-May-13 21:00N 49°17' W 000°15'0 0.1
2017-May-13 20:31N 49°17' W 000°15'0 0.0
2017-May-13 20:01N 49°17' W 000°15'0 0.0
2017-May-13 19:31N 49°17' W 000°15'2 4.6
2017-May-13 19:00N 49°20' W 000°14'917.9
2017-May-13 18:31N 49°28' W 000°17'918.5
2017-May-13 18:01N 49°37' W 000°22'918.4
2017-May-13 17:30N 49°46' W 000°26'918.2
2017-May-13 17:01N 49°55' W 000°31'918.1
2017-May-13 16:30N 50°03' W 000°35'918.0
2017-May-13 16:01N 50°12' W 000°40'917.7
2017-May-13 15:30N 50°19' W 000°47'918.7
2017-May-13 15:01N 50°28' W 000°52'918.1
2017-May-13 14:30N 50°36' W 000°57'1313.4
2017-May-13 13:30N 50°49' W 001°06'0 0.0
2017-May-13 13:00N 50°49' W 001°06'0 0.0
2017-May-13 12:31N 50°49' W 001°06'0 0.1
2017-May-13 12:01N 50°49' W 001°06'4 8.9
2017-May-13 11:31N 50°44' W 001°04'1020.0
2017-May-13 11:01N 50°36' W 000°57'1020.3
2017-May-13 10:30N 50°27' W 000°49'1020.7
2017-May-13 10:00N 50°17' W 000°43'1020.5
2017-May-13 09:30N 50°07' W 000°38'1020.4
2017-May-13 09:00N 49°57' W 000°34'1020.0
2017-May-13 08:30N 49°48' W 000°31'1019.7
2017-May-13 08:00N 49°38' W 000°26'918.4
2017-May-13 07:31N 49°30' W 000°21'918.4
2017-May-13 07:01N 49°21' W 000°15'4 8.2
2017-May-13 06:30N 49°17' W 000°15'0 0.0
2017-May-13 06:00N 49°17' W 000°15'0 0.0
2017-May-13 05:30N 49°17' W 000°15'0 0.0
2017-May-13 05:00N 49°17' W 000°15'0 0.2
2017-May-13 04:31N 49°17' W 000°15'815.3
2017-May-13 04:00N 49°25' W 000°16'815.6
2017-May-13 03:30N 49°32' W 000°19'815.5
2017-May-13 03:00N 49°40' W 000°22'815.5
2017-May-13 02:30N 49°47' W 000°26'815.2
2017-May-13 02:00N 49°55' W 000°29'815.5
2017-May-13 01:30N 50°02' W 000°32'815.0
2017-May-13 01:00N 50°09' W 000°36'815.1
2017-May-13 00:30N 50°16' W 000°40'815.2
2017-May-13 00:00N 50°23' W 000°46'815.5
2017-May-12 23:30N 50°30' W 000°51'816.1
2017-May-12 23:00N 50°37' W 000°57'815.3
2017-May-12 22:30N 50°44' W 001°03'510.5
2017-May-12 22:00N 50°49' W 001°07'1 1.2
2017-May-12 21:30N 50°49' W 001°06'0 0.0
2017-May-12 21:00N 50°49' W 001°06'0 0.0
2017-May-12 20:30N 50°49' W 001°06'1 1.6
2017-May-12 20:01N 50°48' W 001°07'612.8
2017-May-12 19:30N 50°43' W 001°01'917.6
2017-May-12 19:00N 50°36' W 000°54'918.0
2017-May-12 18:30N 50°27' W 000°49'917.3
2017-May-12 17:58N 50°18' W 000°44'817.4
2017-May-12 17:30N 50°11' W 000°40'917.7
2017-May-12 17:00N 50°02' W 000°36'917.9
2017-May-12 16:30N 49°54' W 000°31'918.0
2017-May-12 16:00N 49°46' W 000°26'1019.9
2017-May-12 15:30N 49°36' W 000°21'  
Track history (hours):
 
Tides and Currents Weather Stations Pressure Air Temp Water Temp Dewpoint Dewpoint Depression Visibility Wind Speed Wind Dir Waves Ship Positions

Mont Saint Michel

Last reported at 2017-May-22 15:29 UTC. Time now 2017-May-22 15:29 UTC.
Position N 50°20' W 000°47'.

Length 173 m; beam 29 m.

Type: Ship. MMSI: 227023100.

Date/timePositionNaut miles runAvg speedWind from/ knotsBaromVisibWave heightAir tempDewpointWater temp
2017-May-22 15:29N 50°20' W 000°47'919.2
2017-May-22 15:01N 50°28' W 000°52'1817.7
2017-May-22 14:01N 50°44' W 001°04'5 9.4
2017-May-22 13:31N 50°49' W 001°06'0 0.0
2017-May-22 13:00N 50°49' W 001°06'0 0.0
2017-May-22 12:31N 50°49' W 001°06'0 0.1
2017-May-22 12:01N 50°49' W 001°06'3 6.1
2017-May-22 11:30N 50°46' W 001°05'816.3
2017-May-22 11:01N 50°39' W 000°59'1019.7
2017-May-22 10:30N 50°30' W 000°52'1019.8
2017-May-22 10:00N 50°21' W 000°45'1020.1
2017-May-22 09:30N 50°12' W 000°38'1020.0
2017-May-22 09:00N 50°03' W 000°31'1019.6
2017-May-22 08:30N 49°54' W 000°25'1019.5
2017-May-22 08:00N 49°45' W 000°20'1019.3
2017-May-22 07:30N 49°35' W 000°17'1019.4
2017-May-22 07:00N 49°26' W 000°16'816.8
2017-May-22 06:31N 49°17' W 000°15'0 0.1
2017-May-22 06:00N 49°17' W 000°15'0 0.0
2017-May-22 05:30N 49°17' W 000°15'0 0.0
2017-May-22 05:00N 49°17' W 000°15'0 0.2
2017-May-22 04:31N 49°17' W 000°15'612.8
2017-May-22 04:00N 49°24' W 000°16'815.3
2017-May-22 03:30N 49°31' W 000°21'715.0
2017-May-22 03:00N 49°38' W 000°25'815.0
2017-May-22 02:30N 49°44' W 000°30'714.9
2017-May-22 02:00N 49°51' W 000°35'714.5
2017-May-22 01:30N 49°58' W 000°40'714.3
2017-May-22 01:00N 50°04' W 000°44'714.3
2017-May-22 00:30N 50°11' W 000°47'714.3
2017-May-22 00:00N 50°18' W 000°50'714.6
2017-May-21 23:30N 50°25' W 000°53'714.3
2017-May-21 23:00N 50°32' W 000°56'714.5
2017-May-21 22:30N 50°39' W 000°59'714.4
2017-May-21 22:00N 50°45' W 001°05'4 7.3
2017-May-21 21:30N 50°49' W 001°06'0 0.0
2017-May-21 21:00N 50°49' W 001°06'0 0.0
2017-May-21 20:30N 50°49' W 001°06'0 0.2
2017-May-21 20:01N 50°49' W 001°06'510.5
2017-May-21 19:31N 50°44' W 001°03'1019.9
2017-May-21 19:00N 50°35' W 000°55'1020.8
2017-May-21 18:30N 50°26' W 000°47'1020.8
2017-May-21 18:01N 50°16' W 000°42'1020.6
2017-May-21 17:30N 50°06' W 000°37'1020.4
2017-May-21 17:00N 49°57' W 000°33'1020.4
2017-May-21 16:30N 49°47' W 000°29'1020.2
2017-May-21 16:00N 49°37' W 000°23'1020.2
2017-May-21 15:30N 49°28' W 000°19'918.8
2017-May-21 15:00N 49°19' W 000°15'1 1.3
2017-May-21 14:00N 49°17' W 000°15'0 0.0
2017-May-21 13:30N 49°17' W 000°15'0 0.0
2017-May-21 13:00N 49°17' W 000°15'2 4.3
2017-May-21 12:30N 49°19' W 000°15'815.8
2017-May-21 12:01N 49°27' W 000°18'816.0
2017-May-21 11:31N 49°34' W 000°24'815.8
2017-May-21 11:00N 49°42' W 000°27'918.5
2017-May-21 10:30N 49°51' W 000°29'918.5
2017-May-21 10:00N 49°60' W 000°32'918.5
2017-May-21 09:30N 50°09' W 000°36'918.6
2017-May-21 09:00N 50°18' W 000°41'1020.3
2017-May-21 08:31N 50°27' W 000°48'1020.2
2017-May-21 08:00N 50°35' W 000°56'918.8
2017-May-21 07:31N 50°44' W 001°03'510.7
2017-May-21 07:00N 50°49' W 001°06'0 0.0
2017-May-21 06:30N 50°49' W 001°06'0 0.0
2017-May-21 06:00N 50°49' W 001°06'0 0.0
2017-May-21 05:30N 50°49' W 001°06'3 6.7
2017-May-21 05:00N 50°45' W 001°05'815.4
2017-May-21 04:30N 50°39' W 000°58'714.1
2017-May-21 04:00N 50°33' W 000°53'510.4
2017-May-21 03:30N 50°28' W 000°49'610.7
2017-May-21 02:55N 50°23' W 000°44'511.3
2017-May-21 02:30N 50°18' W 000°44'611.1
2017-May-21 02:00N 50°13' W 000°42'611.1
2017-May-21 01:30N 50°07' W 000°41'611.7
2017-May-21 01:00N 50°01' W 000°39'611.9
2017-May-21 00:30N 49°56' W 000°36'611.9
2017-May-21 00:00N 49°50' W 000°33'612.0
2017-May-20 23:30N 49°44' W 000°30'612.0
2017-May-20 23:00N 49°39' W 000°27'612.0
2017-May-20 22:30N 49°33' W 000°24'612.2
2017-May-20 22:00N 49°28' W 000°19'612.0
2017-May-20 21:30N 49°23' W 000°15'510.5
2017-May-20 21:01N 49°17' W 000°15'0 0.1
2017-May-20 20:30N 49°17' W 000°15'0 0.0
2017-May-20 20:00N 49°17' W 000°15'0 0.0
2017-May-20 19:30N 49°17' W 000°15'3 6.8
2017-May-20 19:00N 49°21' W 000°14'1020.7
2017-May-20 18:30N 49°30' W 000°22'918.5
2017-May-20 18:00N 49°38' W 000°28'815.8
2017-May-20 17:30N 49°46' W 000°30'816.5
2017-May-20 17:00N 49°54' W 000°35'917.7
2017-May-20 16:30N 50°02' W 000°39'918.6
2017-May-20 16:00N 50°11' W 000°44'918.0
2017-May-20 15:29N 50°20' W 000°47'918.0
2017-May-20 14:59N 50°28' W 000°52'1717.5
2017-May-20 14:01N 50°44' W 001°04'5 9.8
2017-May-20 13:31N 50°49' W 001°06'0 0.0
2017-May-20 13:00N 50°49' W 001°06'0 0.0
2017-May-20 12:31N 50°49' W 001°06'0 0.2
2017-May-20 12:00N 50°49' W 001°06'4 8.6
2017-May-20 11:30N 50°44' W 001°05'815.5
2017-May-20 11:00N 50°39' W 000°56'816.9
2017-May-20 10:31N 50°31' W 000°51'917.9
2017-May-20 10:00N 50°23' W 000°43'1020.1
2017-May-20 09:30N 50°14' W 000°36'1020.0
2017-May-20 09:01N 50°05' W 000°31'1020.1
2017-May-20 08:31N 49°55' W 000°27'1020.0
2017-May-20 08:01N 49°46' W 000°23'1020.7
2017-May-20 07:30N 49°36' W 000°18'1121.2
2017-May-20 07:00N 49°25' W 000°16'815.9
2017-May-20 06:31N 49°17' W 000°15'0 0.0
2017-May-20 06:01N 49°17' W 000°15'0 0.0
2017-May-20 05:31N 49°17' W 000°15'0 0.0
2017-May-20 05:00N 49°17' W 000°15'0 0.2
2017-May-20 04:31N 49°17' W 000°15'713.2
2017-May-20 04:00N 49°24' W 000°17'815.4
2017-May-20 03:31N 49°31' W 000°22'815.0
2017-May-20 03:00N 49°38' W 000°26'815.1
2017-May-20 02:30N 49°45' W 000°30'815.1
2017-May-20 02:00N 49°52' W 000°34'815.7
2017-May-20 01:30N 49°59' W 000°38'815.6
2017-May-20 00:59N 50°07' W 000°42'1415.5
2017-May-20 00:06N 50°20' W 000°48'215.3
2017-May-19 23:57N 50°22' W 000°49'715.3
2017-May-19 23:30N 50°29' W 000°52'815.2
2017-May-19 23:00N 50°36' W 000°57'714.2
2017-May-19 22:31N 50°43' W 000°60'612.4
2017-May-19 22:00N 50°47' W 001°06'2 3.1
2017-May-19 21:30N 50°49' W 001°06'0 0.0
2017-May-19 21:00N 50°49' W 001°06'0 0.0
2017-May-19 20:30N 50°49' W 001°06'0 0.5
2017-May-19 20:00N 50°49' W 001°06'612.3
2017-May-19 19:31N 50°43' W 001°02'918.2
2017-May-19 19:00N 50°36' W 000°54'1119.5
2017-May-19 18:27N 50°27' W 000°44'818.5
2017-May-19 18:00N 50°19' W 000°41'1019.0
2017-May-19 17:30N 50°10' W 000°37'918.9
2017-May-19 17:00N 50°01' W 000°33'918.8
2017-May-19 16:30N 49°52' W 000°29'918.8
2017-May-19 16:00N 49°43' W 000°24'918.7
2017-May-19 15:30N 49°34' W 000°20'918.7
2017-May-19 15:00N 49°25' W 000°16'7 7.4
2017-May-19 14:01N 49°17' W 000°15'0 0.0
2017-May-19 13:31N 49°17' W 000°15'0 0.0
2017-May-19 13:01N 49°17' W 000°15'2 4.9
2017-May-19 12:31N 49°20' W 000°14'816.3
2017-May-19 12:00N 49°28' W 000°18'816.5
2017-May-19 11:31N 49°35' W 000°24'1019.1
2017-May-19 11:01N 49°44' W 000°28'1019.0
2017-May-19 10:30N 49°53' W 000°34'918.7
2017-May-19 10:01N 50°02' W 000°39'918.7
2017-May-19 09:30N 50°10' W 000°44'1118.8
2017-May-19 08:55N 50°21' W 000°50'820.4
2017-May-19 08:30N 50°29' W 000°54'1020.9
2017-May-19 08:00N 50°38' W 000°60'918.1
2017-May-19 07:31N 50°47' W 001°06'2 4.2
2017-May-19 07:00N 50°49' W 001°06'0 0.0
2017-May-19 06:31N 50°49' W 001°06'0 0.0
2017-May-19 06:00N 50°49' W 001°06'0 0.2
2017-May-19 05:31N 50°49' W 001°06'4 7.4
2017-May-19 05:01N 50°45' W 001°05'714.9
2017-May-19 04:30N 50°39' W 000°59'714.8
2017-May-19 04:00N 50°32' W 000°54'714.8
2017-May-19 03:30N 50°25' W 000°49'1214.7
2017-May-19 02:42N 50°14' W 000°42'314.7
2017-May-19 02:30N 50°12' W 000°40'714.8
2017-May-19 02:00N 50°05' W 000°36'611.3
2017-May-19 01:30N 49°59' W 000°33'510.8
2017-May-19 01:00N 49°54' W 000°33'510.6
2017-May-19 00:31N 49°49' W 000°31'510.2
2017-May-19 00:01N 49°44' W 000°29'510.4
2017-May-18 23:31N 49°39' W 000°27'510.2
2017-May-18 23:00N 49°34' W 000°24'510.8
2017-May-18 22:30N 49°29' W 000°20'510.8
2017-May-18 22:00N 49°24' W 000°17'510.5
2017-May-18 21:31N 49°19' W 000°15'2 3.7
2017-May-18 21:00N 49°17' W 000°15'0 0.0
2017-May-18 20:31N 49°17' W 000°15'0 0.0
2017-May-18 20:00N 49°17' W 000°15'0 0.0
2017-May-18 19:31N 49°17' W 000°15'3 5.1
2017-May-18 19:01N 49°20' W 000°14'918.3
2017-May-18 18:31N 49°29' W 000°18'918.8
2017-May-18 18:01N 49°37' W 000°24'1019.3
2017-May-18 17:31N 49°46' W 000°29'1020.6
2017-May-18 17:01N 49°56' W 000°33'1020.4
2017-May-18 16:30N 50°06' W 000°39'1420.4
2017-May-18 15:50N 50°19' W 000°46'720.7
2017-May-18 15:31N 50°25' W 000°50'1019.5
2017-May-18 15:01N 50°34' W 000°56'1615.9
2017-May-18 14:00N 50°48' W 001°07'1 1.5
2017-May-18 13:31N 50°49' W 001°06'0 0.0
2017-May-18 13:01N 50°49' W 001°06'0 0.0
2017-May-18 12:31N 50°49' W 001°06'0 0.6
2017-May-18 12:01N 50°49' W 001°06'510.2
2017-May-18 11:31N 50°44' W 001°03'815.9
2017-May-18 11:01N 50°37' W 000°57'1418.7
2017-May-18 10:16N 50°23' W 000°55'518.7
2017-May-18 10:00N 50°18' W 000°53'1020.1
2017-May-18 09:30N 50°09' W 000°48'1020.8
2017-May-18 09:01N 49°60' W 000°41'1121.1
2017-May-18 08:30N 49°50' W 000°33'1020.8
2017-May-18 08:01N 49°41' W 000°26'1020.3
2017-May-18 07:31N 49°32' W 000°21'1020.5
2017-May-18 07:01N 49°22' W 000°15'5 9.0
2017-May-18 06:30N 49°17' W 000°15'0 0.0
2017-May-18 06:00N 49°17' W 000°15'0 0.0
2017-May-18 05:30N 49°17' W 000°15'0 0.0
2017-May-18 05:00N 49°17' W 000°15'0 0.2
2017-May-18 04:30N 49°17' W 000°15'714.3
2017-May-18 04:01N 49°24' W 000°16'816.5
2017-May-18 03:31N 49°32' W 000°19'612.2
2017-May-18 03:00N 49°38' W 000°22'611.7
2017-May-18 02:30N 49°44' W 000°25'611.8
2017-May-18 02:00N 49°49' W 000°28'611.9
2017-May-18 01:30N 49°55' W 000°31'714.5
2017-May-18 01:00N 50°02' W 000°35'816.9
2017-May-18 00:30N 50°10' W 000°40'1316.8
2017-May-17 23:44N 50°22' W 000°47'416.6
2017-May-17 23:31N 50°25' W 000°49'816.6
2017-May-17 23:01N 50°33' W 000°54'815.9
2017-May-17 22:31N 50°40' W 000°58'611.7
2017-May-17 22:00N 50°44' W 001°05'4 8.6
2017-May-17 21:30N 50°49' W 001°06'0 0.0
2017-May-17 21:00N 50°49' W 001°06'0 0.0
2017-May-17 20:30N 50°49' W 001°06'0 0.0
2017-May-17 20:00N 50°49' W 001°06'0 0.0
2017-May-17 19:30N 50°49' W 001°06'0 0.0
2017-May-17 19:00N 50°49' W 001°06'0 0.0
2017-May-17 18:30N 50°49' W 001°06'0 0.5
2017-May-17 18:01N 50°49' W 001°06'611.6
2017-May-17 17:31N 50°43' W 001°03'917.2
2017-May-17 17:00N 50°35' W 000°57'917.4
2017-May-17 16:30N 50°27' W 000°52'1115.6
2017-May-17 15:47N 50°17' W 000°46'415.7
2017-May-17 15:30N 50°13' W 000°44'815.8
2017-May-17 15:00N 50°05' W 000°40'1615.7
2017-May-17 14:00N 49°50' W 000°33'917.5
2017-May-17 13:31N 49°42' W 000°28'1019.1
2017-May-17 13:00N 49°33' W 000°22'1019.4
2017-May-17 12:30N 49°24' W 000°17'713.9
2017-May-17 12:00N 49°17' W 000°15'0 0.0
2017-May-17 11:30N 49°17' W 000°15'0 0.0
2017-May-17 10:59N 49°17' W 000°15'0 0.0
2017-May-17 10:29N 49°17' W 000°15'0 0.0
2017-May-17 09:59N 49°17' W 000°15'0 0.0
2017-May-17 09:29N 49°17' W 000°15'0 0.0
2017-May-17 08:59N 49°17' W 000°15'0 0.0
2017-May-17 08:29N 49°17' W 000°15'0 0.0
2017-May-17 07:59N 49°17' W 000°15'0 0.0
2017-May-17 07:29N 49°17' W 000°15'0 0.0
2017-May-17 06:59N 49°17' W 000°15'0 0.0
2017-May-17 06:29N 49°17' W 000°15'0 0.0
2017-May-17 05:59N 49°17' W 000°15'0 0.0
2017-May-17 05:30N 49°17' W 000°15'3 6.3
2017-May-17 05:00N 49°20' W 000°14'815.8
2017-May-17 04:30N 49°28' W 000°20'816.0
2017-May-17 04:00N 49°35' W 000°25'815.7
2017-May-17 03:30N 49°42' W 000°29'815.8
2017-May-17 03:00N 49°50' W 000°33'815.5
2017-May-17 02:30N 49°57' W 000°37'815.4
2017-May-17 02:00N 50°04' W 000°42'815.8
2017-May-17 01:29N 50°11' W 000°48'1212.7
2017-May-17 00:35N 50°23' W 000°50'115.4
2017-May-17 00:30N 50°24' W 000°50'611.7
2017-May-17 00:00N 50°29' W 000°53'511.1
2017-May-16 23:30N 50°35' W 000°56'510.6
2017-May-16 23:00N 50°40' W 000°58'510.2
2017-May-16 22:30N 50°44' W 001°03'510.6
2017-May-16 22:01N 50°49' W 001°07'1 1.1
2017-May-16 21:30N 50°49' W 001°06'0 0.0
2017-May-16 20:58N 50°49' W 001°06'0 0.0
2017-May-16 20:28N 50°49' W 001°06'0 0.8
2017-May-16 20:00N 50°49' W 001°06'611.6
2017-May-16 19:30N 50°44' W 001°02'917.7
2017-May-16 19:00N 50°35' W 000°57'1019.4
2017-May-16 18:30N 50°26' W 000°53'918.8
2017-May-16 18:00N 50°17' W 000°48'1019.3
2017-May-16 17:30N 50°08' W 000°43'1019.3
2017-May-16 17:00N 49°59' W 000°37'1019.5
2017-May-16 16:30N 49°50' W 000°32'1019.4
2017-May-16 16:00N 49°41' W 000°27'1019.2
2017-May-16 15:30N 49°32' W 000°21'1019.1
2017-May-16 15:00N 49°23' W 000°16'611.7
2017-May-16 14:30N 49°17' W 000°15'0 0.0
2017-May-16 13:30N 49°17' W 000°15'0 0.0
2017-May-16 13:00N 49°17' W 000°15'2 4.4
2017-May-16 12:30N 49°20' W 000°15'1019.5
2017-May-16 12:00N 49°29' W 000°19'1019.3
2017-May-16 11:30N 49°38' W 000°24'1019.4
2017-May-16 11:00N 49°47' W 000°30'1019.9
2017-May-16 10:30N 49°56' W 000°35'3419.2
2017-May-16 08:43N 50°29' W 000°53'418.3
2017-May-16 08:30N 50°33' W 000°55'917.9
2017-May-16 08:00N 50°41' W 000°58'815.8
2017-May-16 07:30N 50°47' W 001°06'2 3.5
2017-May-16 07:00N 50°49' W 001°06'0 0.0
2017-May-16 06:30N 50°49' W 001°06'0 0.0
2017-May-16 06:00N 50°49' W 001°06'0 0.2
2017-May-16 05:31N 50°49' W 001°06'5 9.2
2017-May-16 05:01N 50°44' W 001°04'918.0
2017-May-16 04:30N 50°37' W 000°57'815.3
2017-May-16 04:00N 50°30' W 000°52'612.0
2017-May-16 03:30N 50°24' W 000°48'812.0
2017-May-16 02:51N 50°17' W 000°42'412.3
2017-May-16 02:30N 50°13' W 000°39'612.1
2017-May-16 02:00N 50°08' W 000°36'611.9
2017-May-16 01:30N 50°02' W 000°32'611.5
2017-May-16 01:00N 49°57' W 000°29'611.5
2017-May-16 00:30N 49°51' W 000°27'611.8
2017-May-16 00:00N 49°46' W 000°24'611.8
2017-May-15 23:30N 49°40' W 000°22'611.6
2017-May-15 23:00N 49°34' W 000°20'611.7
2017-May-15 22:30N 49°29' W 000°17'611.4
2017-May-15 22:00N 49°23' W 000°15'510.8
2017-May-15 21:30N 49°18' W 000°15'0 0.7
2017-May-15 21:00N 49°17' W 000°15'0 0.0
2017-May-15 20:30N 49°17' W 000°15'0 0.0
2017-May-15 20:00N 49°17' W 000°15'0 0.0
2017-May-15 19:30N 49°17' W 000°15'3 5.9
2017-May-15 19:00N 49°20' W 000°14'1019.4
2017-May-15 18:30N 49°30' W 000°19'918.7
2017-May-15 18:00N 49°38' W 000°24'918.1
2017-May-15 17:30N 49°46' W 000°30'918.0
2017-May-15 17:00N 49°55' W 000°35'917.9
2017-May-15 16:30N 50°03' W 000°39'918.0
2017-May-15 15:59N 50°12' W 000°44'918.2
2017-May-15 15:30N 50°21' W 000°48'918.1
2017-May-15 15:00N 50°29' W 000°53'1817.8
2017-May-15 14:00N 50°45' W 001°05'4 7.1
2017-May-15 13:30N 50°49' W 001°06'0 0.0
2017-May-15 13:00N 50°49' W 001°06'0 0.0
2017-May-15 12:31N 50°49' W 001°06'0 0.2
2017-May-15 12:00N 50°49' W 001°06'510.6
2017-May-15 11:31N 50°44' W 001°03'1019.5
2017-May-15 11:01N 50°35' W 000°55'1020.3
2017-May-15 10:31N 50°26' W 000°49'1120.9
2017-May-15 09:58N 50°15' W 000°44'920.6
2017-May-15 09:30N 50°06' W 000°41'1020.4
2017-May-15 09:01N 49°56' W 000°36'918.7
2017-May-15 08:30N 49°48' W 000°30'918.7
2017-May-15 08:01N 49°39' W 000°24'918.9
2017-May-15 07:31N 49°30' W 000°19'918.9
2017-May-15 07:00N 49°21' W 000°15'4 7.8
2017-May-15 06:31N 49°17' W 000°15'0 0.0
2017-May-15 06:00N 49°17' W 000°15'0 0.0
2017-May-15 05:30N 49°17' W 000°15'0 0.0
2017-May-15 05:00N 49°17' W 000°15'0 0.3
2017-May-15 04:30N 49°17' W 000°15'714.5
2017-May-15 04:01N 49°24' W 000°16'918.0
2017-May-15 03:31N 49°33' W 000°19'917.2
2017-May-15 03:00N 49°41' W 000°24'815.5
2017-May-15 02:31N 49°49' W 000°26'815.7
2017-May-15 02:01N 49°56' W 000°29'815.7
2017-May-15 01:30N 50°04' W 000°33'816.0
2017-May-15 01:01N 50°11' W 000°38'816.1
2017-May-15 00:31N 50°19' W 000°43'815.9
2017-May-15 00:01N 50°26' W 000°48'816.2
2017-May-14 23:31N 50°33' W 000°54'816.1
2017-May-14 23:00N 50°41' W 000°58'714.7
2017-May-14 22:31N 50°46' W 001°06'2 4.9
2017-May-14 22:00N 50°49' W 001°06'0 0.0
2017-May-14 21:30N 50°49' W 001°06'0 0.0
2017-May-14 21:01N 50°49' W 001°06'0 0.0
2017-May-14 20:30N 50°49' W 001°06'3 6.7
2017-May-14 20:00N 50°45' W 001°05'510.5
2017-May-14 19:31N 50°43' W 000°58'815.7
2017-May-14 19:01N 50°35' W 000°54'1020.6
2017-May-14 18:31N 50°25' W 000°49'1021.0
2017-May-14 18:01N 50°16' W 000°43'917.2
2017-May-14 17:31N 50°08' W 000°38'917.4
2017-May-14 17:00N 49°59' W 000°34'917.7
2017-May-14 16:31N 49°51' W 000°28'918.4
2017-May-14 16:01N 49°43' W 000°23'1020.0
2017-May-14 15:30N 49°33' W 000°19'1019.9
2017-May-14 15:01N 49°23' W 000°16'612.0
2017-May-14 14:30N 49°17' W 000°15'0 0.0
2017-May-14 13:30N 49°17' W 000°15'0 0.0
2017-May-14 13:00N 49°17' W 000°15'0 0.0
2017-May-14 12:30N 49°17' W 000°15'713.6
2017-May-14 12:00N 49°24' W 000°14'1019.9
2017-May-14 11:30N 49°34' W 000°18'816.7
2017-May-14 11:00N 49°42' W 000°22'917.0
2017-May-14 10:30N 49°50' W 000°26'917.1
2017-May-14 10:00N 49°58' W 000°30'917.2
2017-May-14 09:30N 50°06' W 000°34'1121.7
2017-May-14 09:00N 50°16' W 000°42'1021.3
2017-May-14 08:30N 50°26' W 000°49'1121.2
2017-May-14 08:00N 50°35' W 000°56'918.4
2017-May-14 07:30N 50°43' W 001°02'611.8
2017-May-14 07:00N 50°49' W 001°06'0 0.3
2017-May-14 06:30N 50°49' W 001°06'0 0.0
2017-May-14 06:00N 50°49' W 001°06'0 0.8
2017-May-14 05:30N 50°49' W 001°06'611.7
2017-May-14 05:00N 50°44' W 001°02'816.0
2017-May-14 04:31N 50°36' W 000°57'612.2
2017-May-14 04:01N 50°31' W 000°53'612.0
2017-May-14 03:28N 50°25' W 000°49'711.0
2017-May-14 02:52N 50°19' W 000°45'411.4
2017-May-14 02:30N 50°15' W 000°43'611.7
2017-May-14 02:01N 50°09' W 000°40'611.5
2017-May-14 01:30N 50°04' W 000°36'611.3
2017-May-14 01:01N 49°59' W 000°34'611.1
2017-May-14 00:31N 49°53' W 000°30'511.0
2017-May-14 00:01N 49°48' W 000°28'510.7
2017-May-13 23:30N 49°43' W 000°25'510.7
2017-May-13 23:01N 49°38' W 000°21'510.9
2017-May-13 22:31N 49°33' W 000°21'611.3
2017-May-13 22:01N 49°28' W 000°18'611.0
2017-May-13 21:30N 49°22' W 000°15'510.0
2017-May-13 21:00N 49°17' W 000°15'0 0.1
2017-May-13 20:31N 49°17' W 000°15'0 0.0
2017-May-13 20:01N 49°17' W 000°15'0 0.0
2017-May-13 19:31N 49°17' W 000°15'2 4.6
2017-May-13 19:00N 49°20' W 000°14'917.9
2017-May-13 18:31N 49°28' W 000°17'918.5
2017-May-13 18:01N 49°37' W 000°22'918.4
2017-May-13 17:30N 49°46' W 000°26'918.2
2017-May-13 17:01N 49°55' W 000°31'918.1
2017-May-13 16:30N 50°03' W 000°35'918.0
2017-May-13 16:01N 50°12' W 000°40'917.7
2017-May-13 15:30N 50°19' W 000°47'918.7
2017-May-13 15:01N 50°28' W 000°52'918.1
2017-May-13 14:30N 50°36' W 000°57'1313.4
2017-May-13 13:30N 50°49' W 001°06'0 0.0
2017-May-13 13:00N 50°49' W 001°06'0 0.0
2017-May-13 12:31N 50°49' W 001°06'0 0.1
2017-May-13 12:01N 50°49' W 001°06'4 8.9
2017-May-13 11:31N 50°44' W 001°04'1020.0
2017-May-13 11:01N 50°36' W 000°57'1020.3
2017-May-13 10:30N 50°27' W 000°49'1020.7
2017-May-13 10:00N 50°17' W 000°43'1020.5
2017-May-13 09:30N 50°07' W 000°38'1020.4
2017-May-13 09:00N 49°57' W 000°34'1020.0
2017-May-13 08:30N 49°48' W 000°31'1019.7
2017-May-13 08:00N 49°38' W 000°26'918.4
2017-May-13 07:31N 49°30' W 000°21'918.4
2017-May-13 07:01N 49°21' W 000°15'4 8.2
2017-May-13 06:30N 49°17' W 000°15'0 0.0
2017-May-13 06:00N 49°17' W 000°15'0 0.0
2017-May-13 05:30N 49°17' W 000°15'0 0.0
2017-May-13 05:00N 49°17' W 000°15'0 0.2
2017-May-13 04:31N 49°17' W 000°15'815.3
2017-May-13 04:00N 49°25' W 000°16'815.6
2017-May-13 03:30N 49°32' W 000°19'815.5
2017-May-13 03:00N 49°40' W 000°22'815.5
2017-May-13 02:30N 49°47' W 000°26'815.2
2017-May-13 02:00N 49°55' W 000°29'815.5
2017-May-13 01:30N 50°02' W 000°32'815.0
2017-May-13 01:00N 50°09' W 000°36'815.1
2017-May-13 00:30N 50°16' W 000°40'815.2
2017-May-13 00:00N 50°23' W 000°46'815.5
2017-May-12 23:30N 50°30' W 000°51'816.1
2017-May-12 23:00N 50°37' W 000°57'815.3
2017-May-12 22:30N 50°44' W 001°03'510.5
2017-May-12 22:00N 50°49' W 001°07'1 1.2
2017-May-12 21:30N 50°49' W 001°06'0 0.0
2017-May-12 21:00N 50°49' W 001°06'0 0.0
2017-May-12 20:30N 50°49' W 001°06'1 1.6
2017-May-12 20:01N 50°48' W 001°07'612.8
2017-May-12 19:30N 50°43' W 001°01'917.6
2017-May-12 19:00N 50°36' W 000°54'918.0
2017-May-12 18:30N 50°27' W 000°49'917.3
2017-May-12 17:58N 50°18' W 000°44'817.4
2017-May-12 17:30N 50°11' W 000°40'917.7
2017-May-12 17:00N 50°02' W 000°36'917.9
2017-May-12 16:30N 49°54' W 000°31'918.0
2017-May-12 16:00N 49°46' W 000°26'1019.9
2017-May-12 15:30N 49°36' W 000°21'  

Dump ship's entire track history